Time,TemperatureF,DewpointF,PressureIn,WindDirection,WindDirectionDegrees,WindSpeedMPH,WindSpeedGustMPH,Humidity,HourlyPrecipIn,Conditions,Clouds,dailyrainin,SolarRadiationWatts/m^2,SoftwareType,DateUTC
2013-01-12 00:00:00,71.2,66.8,30.23,ESE,120,8.0,10.0,86,0.00,,,0.00,0,LWC V2.10 B1813,2013-01-12 05:00:00,
2013-01-12 00:05:00,71.1,66.7,30.23,ESE,114,10.0,10.0,86,0.00,,,0.00,0,LWC V2.10 B1813,2013-01-12 05:05:00,
2013-01-12 00:10:00,71.0,66.6,30.23,ESE,104,5.0,9.0,86,0.00,,,0.00,0,LWC V2.10 B1813,2013-01-12 05:10:00,
2013-01-12 00:15:00,70.9,66.5,30.23,ESE,116,10.0,14.0,86,0.00,,,0.00,0,LWC V2.10 B1813,2013-01-12 05:15:00,
2013-01-12 00:20:00,70.8,66.4,30.22,ESE,115,10.0,11.0,86,0.00,,,0.00,0,LWC V2.10 B1813,2013-01-12 05:20:00,
2013-01-12 00:25:00,70.7,66.3,30.22,ESE,120,9.0,13.0,86,0.00,,,0.00,0,LWC V2.10 B1813,2013-01-12 05:25:00,
2013-01-12 00:30:00,70.5,66.4,30.22,SE,129,9.0,14.0,87,0.00,,,0.00,0,LWC V2.10 B1813,2013-01-12 05:30:00,
2013-01-12 00:35:00,70.3,66.2,30.22,ESE,116,11.0,15.0,87,0.00,,,0.00,0,LWC V2.10 B1813,2013-01-12 05:35:00,
2013-01-12 00:40:00,70.3,66.2,30.22,ESE,115,10.0,14.0,87,0.00,,,0.00,0,LWC V2.10 B1813,2013-01-12 05:40:00,
2013-01-12 00:45:00,70.1,66.0,30.22,ESE,110,11.0,12.0,87,0.00,,,0.00,0,LWC V2.10 B1813,2013-01-12 05:45:00,
2013-01-12 00:50:00,70.1,66.0,30.22,East,97,11.0,13.0,87,0.00,,,0.00,0,LWC V2.10 B1813,2013-01-12 05:50:00,
2013-01-12 00:55:00,70.0,65.9,30.22,ESE,118,11.0,15.0,87,0.00,,,0.00,0,LWC V2.10 B1813,2013-01-12 05:55:00,
2013-01-12 01:00:00,70.0,65.9,30.22,ESE,115,13.0,15.0,87,0.00,,,0.00,0,LWC V2.10 B1813,2013-01-12 06:00:00,
2013-01-12 01:05:00,69.9,65.8,30.21,ESE,116,11.0,11.0,87,0.00,,,0.00,0,LWC V2.10 B1813,2013-01-12 06:05:00,
2013-01-12 01:10:00,69.8,66.1,30.21,ESE,117,12.0,13.0,88,0.00,,,0.00,0,LWC V2.10 B1813,2013-01-12 06:10:00,
2013-01-12 01:15:00,69.8,66.1,30.21,ESE,114,7.0,11.0,88,0.00,,,0.00,0,LWC V2.10 B1813,2013-01-12 06:15:00,
2013-01-12 01:20:00,69.7,66.0,30.21,ESE,122,12.0,14.0,88,0.00,,,0.00,0,LWC V2.10 B1813,2013-01-12 06:20:00,
2013-01-12 01:25:00,69.6,65.9,30.21,ESE,116,9.0,15.0,88,0.00,,,0.00,0,LWC V2.10 B1813,2013-01-12 06:25:00,
2013-01-12 01:30:00,69.5,65.8,30.21,ESE,106,10.0,13.0,88,0.00,,,0.00,0,LWC V2.10 B1813,2013-01-12 06:30:00,
2013-01-12 01:35:00,69.5,65.8,30.21,ESE,116,12.0,13.0,88,0.00,,,0.00,0,LWC V2.10 B1813,2013-01-12 06:35:00,
2013-01-12 01:40:00,69.4,65.7,30.21,ESE,108,7.0,10.0,88,0.00,,,0.00,0,LWC V2.10 B1813,2013-01-12 06:40:00,
2013-01-12 01:45:00,69.5,65.8,30.21,ESE,106,8.0,11.0,88,0.00,,,0.00,0,LWC V2.10 B1813,2013-01-12 06:45:00,
2013-01-12 01:50:00,69.6,65.9,30.21,East,92,6.0,10.0,88,0.00,,,0.00,0,LWC V2.10 B1813,2013-01-12 06:50:00,
2013-01-12 01:55:00,69.7,66.0,30.21,ESE,112,9.0,9.0,88,0.00,,,0.00,0,LWC V2.10 B1813,2013-01-12 06:55:00,
2013-01-12 02:00:00,69.6,65.9,30.20,East,91,5.0,10.0,88,0.00,,,0.00,0,LWC V2.10 B1813,2013-01-12 07:00:00,
2013-01-12 02:05:00,69.5,65.8,30.20,ESE,104,9.0,11.0,88,0.00,,,0.00,0,LWC V2.10 B1813,2013-01-12 07:05:00,
2013-01-12 02:10:00,69.5,65.8,30.20,ESE,111,11.0,11.0,88,0.00,,,0.00,0,LWC V2.10 B1813,2013-01-12 07:10:00,
2013-01-12 02:15:00,69.4,65.7,30.20,ESE,122,9.0,13.0,88,0.00,,,0.00,0,LWC V2.10 B1813,2013-01-12 07:15:00,
2013-01-12 02:20:00,69.3,65.6,30.20,ESE,108,8.0,9.0,88,0.00,,,0.00,0,LWC V2.10 B1813,2013-01-12 07:20:00,
2013-01-12 02:25:00,69.2,65.5,30.20,ESE,114,11.0,11.0,88,0.00,,,0.00,0,LWC V2.10 B1813,2013-01-12 07:25:00,
2013-01-12 02:30:00,69.2,65.8,30.20,ESE,110,11.0,11.0,89,0.00,,,0.00,0,LWC V2.10 B1813,2013-01-12 07:30:00,
2013-01-12 02:35:00,69.1,65.7,30.20,ESE,122,8.0,11.0,89,0.00,,,0.00,0,LWC V2.10 B1813,2013-01-12 07:35:00,
2013-01-12 02:40:00,69.0,65.6,30.20,East,94,7.0,11.0,89,0.00,,,0.00,0,LWC V2.10 B1813,2013-01-12 07:40:00,
2013-01-12 02:45:00,68.8,65.4,30.20,ESE,104,7.0,12.0,89,0.00,,,0.00,0,LWC V2.10 B1813,2013-01-12 07:45:00,
2013-01-12 02:50:00,68.6,65.2,30.19,ESE,110,7.0,11.0,89,0.00,,,0.00,0,LWC V2.10 B1813,2013-01-12 07:50:00,
2013-01-12 02:55:00,68.5,65.4,30.19,East,98,8.0,11.0,90,0.00,,,0.00,0,LWC V2.10 B1813,2013-01-12 07:55:00,
2013-01-12 03:00:00,68.4,65.3,30.19,East,98,8.0,11.0,90,0.00,,,0.00,0,LWC V2.10 B1813,2013-01-12 08:00:00,
2013-01-12 03:05:00,68.3,65.2,30.19,ESE,107,9.0,11.0,90,0.00,,,0.00,0,LWC V2.10 B1813,2013-01-12 08:05:00,
2013-01-12 03:10:00,68.2,65.1,30.19,ESE,106,9.0,12.0,90,0.00,,,0.00,0,LWC V2.10 B1813,2013-01-12 08:10:00,
2013-01-12 03:15:00,68.1,65.0,30.19,ESE,113,8.0,10.0,90,0.00,,,0.00,0,LWC V2.10 B1813,2013-01-12 08:15:00,
2013-01-12 03:20:00,68.1,65.0,30.19,ENE,78,6.0,10.0,90,0.00,,,0.00,0,LWC V2.10 B1813,2013-01-12 08:20:00,
2013-01-12 03:25:00,68.0,65.0,30.19,ESE,103,9.0,10.0,90,0.00,,,0.00,0,LWC V2.10 B1813,2013-01-12 08:25:00,
2013-01-12 03:30:00,67.9,65.2,30.19,East,92,6.0,10.0,91,0.00,,,0.00,0,LWC V2.10 B1813,2013-01-12 08:30:00,
2013-01-12 03:35:00,67.9,65.2,30.19,ESE,106,10.0,10.0,91,0.00,,,0.00,0,LWC V2.10 B1813,2013-01-12 08:35:00,
2013-01-12 03:40:00,67.8,65.1,30.19,East,87,5.0,10.0,91,0.00,,,0.00,0,LWC V2.10 B1813,2013-01-12 08:40:00,
2013-01-12 03:45:00,67.8,65.1,30.19,East,80,7.0,11.0,91,0.00,,,0.00,0,LWC V2.10 B1813,2013-01-12 08:45:00,
2013-01-12 03:50:00,67.7,65.0,30.19,East,83,5.0,7.0,91,0.00,,,0.00,0,LWC V2.10 B1813,2013-01-12 08:50:00,
2013-01-12 03:55:00,67.7,65.0,30.19,East,92,2.0,7.0,91,0.00,,,0.00,0,LWC V2.10 B1813,2013-01-12 08:55:00,
2013-01-12 04:00:00,67.7,65.3,30.19,East,87,7.0,7.0,92,0.00,,,0.00,0,LWC V2.10 B1813,2013-01-12 09:00:00,
2013-01-12 04:05:00,67.5,64.8,30.18,East,88,5.0,8.0,91,0.00,,,0.00,0,LWC V2.10 B1813,2013-01-12 09:05:00,
2013-01-12 04:10:00,67.4,64.7,30.18,ENE,72,4.0,7.0,91,0.00,,,0.00,0,LWC V2.10 B1813,2013-01-12 09:10:00,
2013-01-12 04:15:00,67.2,64.5,30.18,ESE,119,5.0,7.0,91,0.00,,,0.00,0,LWC V2.10 B1813,2013-01-12 09:15:00,
2013-01-12 04:20:00,67.2,64.5,30.18,East,97,6.0,9.0,91,0.00,,,0.00,0,LWC V2.10 B1813,2013-01-12 09:20:00,
2013-01-12 04:25:00,67.2,64.8,30.18,East,80,5.0,7.0,92,0.00,,,0.00,0,LWC V2.10 B1813,2013-01-12 09:25:00,
2013-01-12 04:30:00,67.5,64.8,30.18,East,79,5.0,7.0,91,0.00,,,0.00,0,LWC V2.10 B1813,2013-01-12 09:30:00,
2013-01-12 04:35:00,67.3,64.6,30.18,East,84,3.0,7.0,91,0.00,,,0.00,0,LWC V2.10 B1813,2013-01-12 09:35:00,
2013-01-12 04:40:00,67.1,64.4,30.18,East,81,5.0,8.0,91,0.00,,,0.00,0,LWC V2.10 B1813,2013-01-12 09:40:00,
2013-01-12 04:45:00,67.0,64.3,30.18,East,80,5.0,7.0,91,0.00,,,0.00,0,LWC V2.10 B1813,2013-01-12 09:45:00,
2013-01-12 04:50:00,66.9,64.2,30.18,East,81,7.0,7.0,91,0.00,,,0.00,0,LWC V2.10 B1813,2013-01-12 09:50:00,
2013-01-12 04:55:00,66.8,64.4,30.18,ENE,73,7.0,7.0,92,0.00,,,0.00,0,LWC V2.10 B1813,2013-01-12 09:55:00,
2013-01-12 05:00:00,66.8,64.4,30.18,East,91,2.0,6.0,92,0.00,,,0.00,0,LWC V2.10 B1813,2013-01-12 10:00:00,
2013-01-12 05:05:00,66.6,64.2,30.18,ENE,72,4.0,7.0,92,0.00,,,0.00,0,LWC V2.10 B1813,2013-01-12 10:05:00,
2013-01-12 05:10:00,66.6,64.2,30.18,East,83,5.0,10.0,92,0.00,,,0.00,0,LWC V2.10 B1813,2013-01-12 10:10:00,
2013-01-12 05:16:00,66.5,64.1,30.18,East,92,5.0,9.0,92,0.00,,,0.00,0,LWC V2.10 B1813,2013-01-12 10:16:00,
2013-01-12 05:21:00,66.5,64.4,30.18,East,95,7.0,11.0,93,0.00,,,0.00,0,LWC V2.10 B1813,2013-01-12 10:21:00,
2013-01-12 05:26:00,66.4,64.0,30.17,East,95,6.0,7.0,92,0.00,,,0.00,0,LWC V2.10 B1813,2013-01-12 10:26:00,
2013-01-12 05:31:00,66.5,64.4,30.17,East,96,3.0,8.0,93,0.00,,,0.00,0,LWC V2.10 B1813,2013-01-12 10:31:00,
2013-01-12 05:36:00,66.4,64.3,30.17,East,83,6.0,8.0,93,0.00,,,0.00,0,LWC V2.10 B1813,2013-01-12 10:36:00,
2013-01-12 05:41:00,66.3,64.2,30.17,ESE,104,8.0,10.0,93,0.00,,,0.00,0,LWC V2.10 B1813,2013-01-12 10:41:00,
2013-01-12 05:46:00,66.3,64.2,30.17,East,100,6.0,8.0,93,0.00,,,0.00,0,LWC V2.10 B1813,2013-01-12 10:46:00,
2013-01-12 05:51:00,66.3,64.2,30.18,East,100,5.0,9.0,93,0.00,,,0.00,0,LWC V2.10 B1813,2013-01-12 10:51:00,
2013-01-12 05:56:00,66.3,64.2,30.18,East,88,3.0,8.0,93,0.00,,,0.00,0,LWC V2.10 B1813,2013-01-12 10:56:00,
2013-01-12 06:01:00,66.3,64.2,30.18,East,91,5.0,6.0,93,0.00,,,0.00,0,LWC V2.10 B1813,2013-01-12 11:01:00,
2013-01-12 06:06:00,66.4,64.3,30.18,East,84,2.0,6.0,93,0.00,,,0.00,0,LWC V2.10 B1813,2013-01-12 11:06:00,
2013-01-12 06:11:00,66.4,64.3,30.18,East,89,3.0,6.0,93,0.00,,,0.00,0,LWC V2.10 B1813,2013-01-12 11:11:00,
2013-01-12 06:16:00,66.4,64.3,30.18,East,93,2.0,7.0,93,0.00,,,0.00,0,LWC V2.10 B1813,2013-01-12 11:16:00,
2013-01-12 06:21:00,66.4,64.3,30.19,East,87,5.0,7.0,93,0.00,,,0.00,0,LWC V2.10 B1813,2013-01-12 11:21:00,
2013-01-12 06:26:00,66.4,64.3,30.19,East,90,5.0,8.0,93,0.00,,,0.00,0,LWC V2.10 B1813,2013-01-12 11:26:00,
2013-01-12 06:31:00,66.4,64.3,30.19,East,96,6.0,7.0,93,0.00,,,0.00,0,LWC V2.10 B1813,2013-01-12 11:31:00,
2013-01-12 06:36:00,66.4,64.3,30.19,East,89,6.0,7.0,93,0.00,,,0.00,0,LWC V2.10 B1813,2013-01-12 11:36:00,
2013-01-12 06:41:00,66.4,64.3,30.19,East,100,7.0,9.0,93,0.00,,,0.00,0,LWC V2.10 B1813,2013-01-12 11:41:00,
2013-01-12 06:46:00,66.6,64.5,30.19,ESE,105,4.0,10.0,93,0.00,,,0.00,0,LWC V2.10 B1813,2013-01-12 11:46:00,
2013-01-12 06:51:00,66.6,64.5,30.19,East,97,5.0,8.0,93,0.00,,,0.00,0,LWC V2.10 B1813,2013-01-12 11:51:00,
2013-01-12 06:56:00,66.7,64.6,30.19,East,94,5.0,8.0,93,0.00,,,0.00,0,LWC V2.10 B1813,2013-01-12 11:56:00,
2013-01-12 07:01:00,66.6,64.5,30.20,East,87,3.0,6.0,93,0.00,,,0.00,0,LWC V2.10 B1813,2013-01-12 12:01:00,
2013-01-12 07:06:00,66.7,64.6,30.20,East,88,3.0,6.0,93,0.00,,,0.00,0,LWC V2.10 B1813,2013-01-12 12:06:00,
2013-01-12 07:11:00,66.7,64.6,30.20,ENE,71,2.0,7.0,93,0.00,,,0.00,0,LWC V2.10 B1813,2013-01-12 12:11:00,
2013-01-12 07:16:00,66.7,64.3,30.20,East,79,3.0,5.0,92,0.00,,,0.00,0,LWC V2.10 B1813,2013-01-12 12:16:00,
2013-01-12 07:21:00,66.7,64.6,30.20,ENE,69,2.0,5.0,93,0.00,,,0.00,0,LWC V2.10 B1813,2013-01-12 12:21:00,
2013-01-12 07:26:00,66.9,64.8,30.20,East,83,3.0,7.0,93,0.00,,,0.00,5,LWC V2.10 B1813,2013-01-12 12:26:00,
2013-01-12 07:31:00,67.0,64.6,30.20,ENE,68,2.0,7.0,92,0.00,,,0.00,9,LWC V2.10 B1813,2013-01-12 12:31:00,
2013-01-12 07:36:00,66.8,64.4,30.20,East,87,2.0,7.0,92,0.00,,,0.00,12,LWC V2.10 B1813,2013-01-12 12:36:00,
2013-01-12 07:41:00,66.7,64.3,30.20,East,89,5.0,8.0,92,0.00,,,0.00,19,LWC V2.10 B1813,2013-01-12 12:41:00,
2013-01-12 07:46:00,66.7,64.3,30.20,East,79,3.0,8.0,92,0.00,,,0.00,30,LWC V2.10 B1813,2013-01-12 12:46:00,
2013-01-12 07:51:00,66.7,64.3,30.20,East,100,7.0,8.0,92,0.00,,,0.00,42,LWC V2.10 B1813,2013-01-12 12:51:00,
2013-01-12 07:56:00,66.8,64.4,30.20,East,82,5.0,6.0,92,0.00,,,0.00,54,LWC V2.10 B1813,2013-01-12 12:56:00,
2013-01-12 08:01:00,66.9,64.5,30.20,East,81,5.0,8.0,92,0.00,,,0.00,69,LWC V2.10 B1813,2013-01-12 13:01:00,
2013-01-12 08:06:00,67.0,64.6,30.21,East,100,3.0,8.0,92,0.00,,,0.00,81,LWC V2.10 B1813,2013-01-12 13:06:00,
2013-01-12 08:11:00,67.1,64.7,30.21,East,88,3.0,7.0,92,0.00,,,0.00,95,LWC V2.10 B1813,2013-01-12 13:11:00,
2013-01-12 08:16:00,67.2,64.8,30.21,East,93,2.0,10.0,92,0.00,,,0.00,111,LWC V2.10 B1813,2013-01-12 13:16:00,
2013-01-12 08:21:00,67.3,64.9,30.21,East,88,6.0,8.0,92,0.00,,,0.00,128,LWC V2.10 B1813,2013-01-12 13:21:00,
2013-01-12 08:26:00,67.6,65.2,30.21,East,91,5.0,8.0,92,0.00,,,0.00,144,LWC V2.10 B1813,2013-01-12 13:26:00,
2013-01-12 08:31:00,67.9,65.5,30.21,East,94,6.0,8.0,92,0.00,,,0.00,163,LWC V2.10 B1813,2013-01-12 13:31:00,
2013-01-12 08:36:00,68.2,65.5,30.21,East,90,6.0,8.0,91,0.00,,,0.00,183,LWC V2.10 B1813,2013-01-12 13:36:00,
2013-01-12 08:41:00,68.6,65.9,30.21,ESE,104,8.0,9.0,91,0.00,,,0.00,199,LWC V2.10 B1813,2013-01-12 13:41:00,
2013-01-12 08:46:00,68.9,65.8,30.21,East,91,6.0,9.0,90,0.00,,,0.00,214,LWC V2.10 B1813,2013-01-12 13:46:00,
2013-01-12 08:51:00,69.3,66.2,30.21,ESE,116,10.0,10.0,90,0.00,,,0.00,230,LWC V2.10 B1813,2013-01-12 13:51:00,
2013-01-12 08:56:00,69.8,66.4,30.21,ESE,112,7.0,9.0,89,0.00,,,0.00,248,LWC V2.10 B1813,2013-01-12 13:56:00,
2013-01-12 09:01:00,70.3,66.6,30.21,East,97,6.0,9.0,88,0.00,,,0.00,264,LWC V2.10 B1813,2013-01-12 14:01:00,
2013-01-12 09:06:00,70.7,66.6,30.22,SE,127,8.0,10.0,87,0.00,,,0.00,279,LWC V2.10 B1813,2013-01-12 14:06:00,
2013-01-12 09:11:00,71.2,67.1,30.22,East,95,7.0,9.0,87,0.00,,,0.00,294,LWC V2.10 B1813,2013-01-12 14:11:00,
2013-01-12 09:16:00,71.5,66.7,30.22,East,87,5.0,12.0,85,0.00,,,0.00,308,LWC V2.10 B1813,2013-01-12 14:16:00,
2013-01-12 09:21:00,71.9,66.8,30.22,ESE,108,7.0,14.0,84,0.00,,,0.00,323,LWC V2.10 B1813,2013-01-12 14:21:00,
2013-01-12 09:26:00,72.3,67.2,30.22,East,84,8.0,11.0,84,0.00,,,0.00,339,LWC V2.10 B1813,2013-01-12 14:26:00,
2013-01-12 09:31:00,72.6,67.1,30.22,ESE,114,11.0,11.0,83,0.00,,,0.00,355,LWC V2.10 B1813,2013-01-12 14:31:00,
2013-01-12 09:36:00,72.9,67.1,30.22,ESE,109,10.0,11.0,82,0.00,,,0.00,371,LWC V2.10 B1813,2013-01-12 14:36:00,
2013-01-12 09:41:00,73.0,66.8,30.22,ESE,114,16.0,16.0,81,0.00,,,0.00,385,LWC V2.10 B1813,2013-01-12 14:41:00,
2013-01-12 09:46:00,73.4,67.2,30.22,East,99,11.0,13.0,81,0.00,,,0.00,399,LWC V2.10 B1813,2013-01-12 14:46:00,
2013-01-12 09:51:00,73.7,67.1,30.22,ESE,116,13.0,15.0,80,0.00,,,0.00,411,LWC V2.10 B1813,2013-01-12 14:51:00,
2013-01-12 09:56:00,73.7,67.1,30.22,ESE,108,14.0,20.0,80,0.00,,,0.00,422,LWC V2.10 B1813,2013-01-12 14:56:00,
2013-01-12 10:01:00,73.7,67.1,30.22,ESE,117,12.0,21.0,80,0.00,,,0.00,438,LWC V2.10 B1813,2013-01-12 15:01:00,
2013-01-12 10:06:00,74.0,67.1,30.22,ESE,107,8.0,17.0,79,0.00,,,0.00,452,LWC V2.10 B1813,2013-01-12 15:06:00,
2013-01-12 10:11:00,74.2,67.3,30.22,East,83,7.0,13.0,79,0.00,,,0.00,466,LWC V2.10 B1813,2013-01-12 15:11:00,
2013-01-12 10:16:00,74.4,67.4,30.22,ESE,117,15.0,16.0,79,0.00,,,0.00,476,LWC V2.10 B1813,2013-01-12 15:16:00,
2013-01-12 10:21:00,74.6,67.6,30.21,ESE,106,14.0,15.0,79,0.00,,,0.00,490,LWC V2.10 B1813,2013-01-12 15:21:00,
2013-01-12 10:26:00,74.7,67.7,30.21,SE,127,12.0,16.0,79,0.00,,,0.00,499,LWC V2.10 B1813,2013-01-12 15:26:00,
2013-01-12 10:31:00,75.2,68.2,30.21,ESE,118,5.0,12.0,79,0.00,,,0.00,512,LWC V2.10 B1813,2013-01-12 15:31:00,
2013-01-12 10:36:00,75.7,68.3,30.21,East,100,8.0,14.0,78,0.00,,,0.00,540,LWC V2.10 B1813,2013-01-12 15:36:00,
2013-01-12 10:41:00,75.8,68.4,30.21,ESE,117,3.0,12.0,78,0.00,,,0.00,533,LWC V2.10 B1813,2013-01-12 15:41:00,
2013-01-12 10:46:00,76.0,68.3,30.21,ESE,116,12.0,13.0,77,0.00,,,0.00,540,LWC V2.10 B1813,2013-01-12 15:46:00,
2013-01-12 10:51:00,75.7,68.0,30.20,East,86,10.0,16.0,77,0.00,,,0.00,552,LWC V2.10 B1813,2013-01-12 15:51:00,
2013-01-12 10:56:00,75.5,68.1,30.20,ESE,123,12.0,15.0,78,0.00,,,0.00,561,LWC V2.10 B1813,2013-01-12 15:56:00,
2013-01-12 11:01:00,75.9,68.5,30.20,ESE,122,7.0,10.0,78,0.00,,,0.00,571,LWC V2.10 B1813,2013-01-12 16:01:00,
2013-01-12 11:06:00,76.9,68.4,30.20,ESE,118,10.0,14.0,75,0.00,,,0.00,578,LWC V2.10 B1813,2013-01-12 16:06:00,
2013-01-12 11:11:00,76.4,68.3,30.20,SE,126,5.0,11.0,76,0.00,,,0.00,587,LWC V2.10 B1813,2013-01-12 16:11:00,
2013-01-12 11:16:00,76.4,68.3,30.20,SE,139,12.0,15.0,76,0.00,,,0.00,594,LWC V2.10 B1813,2013-01-12 16:16:00,
2013-01-12 11:21:00,76.3,68.2,30.19,ESE,123,10.0,15.0,76,0.00,,,0.00,605,LWC V2.10 B1813,2013-01-12 16:21:00,
2013-01-12 11:26:00,76.4,68.3,30.19,SE,135,8.0,14.0,76,0.00,,,0.00,610,LWC V2.10 B1813,2013-01-12 16:26:00,
2013-01-12 11:31:00,76.5,68.4,30.18,ESE,121,14.0,14.0,76,0.00,,,0.00,629,LWC V2.10 B1813,2013-01-12 16:31:00,
2013-01-12 11:36:00,76.4,68.3,30.18,ESE,120,14.0,14.0,76,0.00,,,0.00,635,LWC V2.10 B1813,2013-01-12 16:36:00,
2013-01-12 11:41:00,76.4,68.6,30.18,ESE,120,9.0,14.0,77,0.00,,,0.00,650,LWC V2.10 B1813,2013-01-12 16:41:00,
2013-01-12 11:46:00,76.9,68.7,30.18,East,100,6.0,13.0,76,0.00,,,0.00,650,LWC V2.10 B1813,2013-01-12 16:46:00,
2013-01-12 11:51:00,76.7,68.5,30.18,North,359,7.0,13.0,76,0.00,,,0.00,679,LWC V2.10 B1813,2013-01-12 16:51:00,
2013-01-12 11:56:00,76.7,68.5,30.18,ESE,122,9.0,14.0,76,0.00,,,0.00,679,LWC V2.10 B1813,2013-01-12 16:56:00,
2013-01-12 12:01:00,77.0,68.8,30.17,SE,135,7.0,14.0,76,0.00,,,0.00,712,LWC V2.10 B1813,2013-01-12 17:01:00,
2013-01-12 12:06:00,77.5,68.9,30.17,ESE,122,5.0,12.0,75,0.00,,,0.00,731,LWC V2.10 B1813,2013-01-12 17:06:00,
2013-01-12 12:11:00,77.8,68.8,30.17,SSE,165,5.0,16.0,74,0.00,,,0.00,670,LWC V2.10 B1813,2013-01-12 17:11:00,
2013-01-12 12:16:00,76.5,68.4,30.17,SSW,193,11.0,11.0,76,0.00,,,0.00,679,LWC V2.10 B1813,2013-01-12 17:16:00,
2013-01-12 12:21:00,75.5,68.1,30.16,SSE,152,9.0,11.0,78,0.00,,,0.00,689,LWC V2.10 B1813,2013-01-12 17:21:00,
2013-01-12 12:26:00,75.4,68.4,30.16,SSE,147,7.0,12.0,79,0.00,,,0.00,680,LWC V2.10 B1813,2013-01-12 17:26:00,
2013-01-12 12:31:00,75.6,68.6,30.16,SSE,165,5.0,11.0,79,0.00,,,0.00,682,LWC V2.10 B1813,2013-01-12 17:31:00,
2013-01-12 12:36:00,74.9,67.9,30.16,SE,133,5.0,11.0,79,0.00,,,0.00,680,LWC V2.10 B1813,2013-01-12 17:36:00,
2013-01-12 12:41:00,74.8,68.2,30.16,South,185,5.0,10.0,80,0.00,,,0.00,682,LWC V2.10 B1813,2013-01-12 17:41:00,
2013-01-12 12:46:00,75.4,68.8,30.16,SE,145,3.0,10.0,80,0.00,,,0.00,684,LWC V2.10 B1813,2013-01-12 17:46:00,
2013-01-12 12:51:00,75.9,69.3,30.16,SSE,162,5.0,8.0,80,0.00,,,0.00,684,LWC V2.10 B1813,2013-01-12 17:51:00,
2013-01-12 12:56:00,76.2,68.8,30.15,SSE,166,3.0,8.0,78,0.00,,,0.00,689,LWC V2.10 B1813,2013-01-12 17:56:00,
2013-01-12 13:01:00,75.5,68.5,30.15,South,187,6.0,7.0,79,0.00,,,0.00,680,LWC V2.10 B1813,2013-01-12 18:01:00,
2013-01-12 13:06:00,75.1,68.1,30.15,SSE,164,8.0,9.0,79,0.00,,,0.00,686,LWC V2.10 B1813,2013-01-12 18:06:00,
2013-01-12 13:11:00,75.7,69.1,30.15,SSE,168,4.0,10.0,80,0.00,,,0.00,687,LWC V2.10 B1813,2013-01-12 18:11:00,
2013-01-12 13:16:00,76.0,69.0,30.15,South,173,3.0,7.0,79,0.00,,,0.00,677,LWC V2.10 B1813,2013-01-12 18:16:00,
2013-01-12 13:21:00,76.4,69.4,30.15,SE,132,6.0,7.0,79,0.00,,,0.00,671,LWC V2.10 B1813,2013-01-12 18:21:00,
2013-01-12 13:26:00,76.8,69.0,30.14,SSW,197,5.0,7.0,77,0.00,,,0.00,673,LWC V2.10 B1813,2013-01-12 18:26:00,
2013-01-12 13:31:00,77.2,69.4,30.14,SE,130,3.0,6.0,77,0.00,,,0.00,666,LWC V2.10 B1813,2013-01-12 18:31:00,
2013-01-12 13:36:00,77.6,69.0,30.14,South,170,4.0,7.0,75,0.00,,,0.00,663,LWC V2.10 B1813,2013-01-12 18:36:00,
2013-01-12 13:41:00,76.3,68.2,30.14,South,182,8.0,10.0,76,0.00,,,0.00,664,LWC V2.10 B1813,2013-01-12 18:41:00,
2013-01-12 13:46:00,74.7,67.7,30.14,South,190,6.0,7.0,79,0.00,,,0.00,671,LWC V2.10 B1813,2013-01-12 18:46:00,
2013-01-12 13:51:00,74.3,68.4,30.14,SSW,197,6.0,6.0,82,0.00,,,0.00,640,LWC V2.10 B1813,2013-01-12 18:51:00,
2013-01-12 13:56:00,74.1,68.2,30.14,SSW,198,4.0,7.0,82,0.00,,,0.00,640,LWC V2.10 B1813,2013-01-12 18:56:00,
2013-01-12 14:01:00,73.8,67.6,30.13,SW,214,5.0,7.0,81,0.00,,,0.00,659,LWC V2.10 B1813,2013-01-12 19:01:00,
2013-01-12 14:06:00,73.5,68.0,30.13,SSW,208,6.0,7.0,83,0.00,,,0.00,659,LWC V2.10 B1813,2013-01-12 19:06:00,
2013-01-12 14:11:00,73.9,68.4,30.13,SSW,204,7.0,7.0,83,0.00,,,0.00,633,LWC V2.10 B1813,2013-01-12 19:11:00,
2013-01-12 14:16:00,74.1,67.9,30.13,SW,215,9.0,9.0,81,0.00,,,0.00,615,LWC V2.10 B1813,2013-01-12 19:16:00,
2013-01-12 14:21:00,73.3,67.8,30.13,SSW,204,7.0,8.0,83,0.00,,,0.00,619,LWC V2.10 B1813,2013-01-12 19:21:00,
2013-01-12 14:26:00,73.0,67.9,30.13,SSW,209,8.0,9.0,84,0.00,,,0.00,621,LWC V2.10 B1813,2013-01-12 19:26:00,
2013-01-12 14:31:00,73.0,67.9,30.13,SSW,209,8.0,11.0,84,0.00,,,0.00,633,LWC V2.10 B1813,2013-01-12 19:31:00,
2013-01-12 14:36:00,73.1,68.0,30.13,SW,216,11.0,11.0,84,0.00,,,0.00,578,LWC V2.10 B1813,2013-01-12 19:36:00,
2013-01-12 14:41:00,72.9,67.8,30.13,SW,218,9.0,11.0,84,0.00,,,0.00,561,LWC V2.10 B1813,2013-01-12 19:41:00,
2013-01-12 14:46:00,72.6,67.8,30.13,SSW,211,8.0,9.0,85,0.00,,,0.00,541,LWC V2.10 B1813,2013-01-12 19:46:00,
2013-01-12 14:51:00,72.8,68.0,30.13,SSW,212,7.0,9.0,85,0.00,,,0.00,534,LWC V2.10 B1813,2013-01-12 19:51:00,
2013-01-12 14:56:00,73.0,68.2,30.13,SW,216,8.0,8.0,85,0.00,,,0.00,510,LWC V2.10 B1813,2013-01-12 19:56:00,
2013-01-12 15:01:00,72.6,67.8,30.13,SW,219,6.0,9.0,85,0.00,,,0.00,492,LWC V2.10 B1813,2013-01-12 20:01:00,
2013-01-12 15:06:00,72.3,67.9,30.13,SW,219,9.0,9.0,86,0.00,,,0.00,476,LWC V2.10 B1813,2013-01-12 20:06:00,
2013-01-12 15:11:00,72.6,68.2,30.13,SW,216,9.0,10.0,86,0.00,,,0.00,471,LWC V2.10 B1813,2013-01-12 20:11:00,
2013-01-12 15:16:00,72.8,68.0,30.14,SW,229,9.0,10.0,85,0.00,,,0.00,455,LWC V2.10 B1813,2013-01-12 20:16:00,
2013-01-12 15:21:00,73.1,68.3,30.14,SW,235,5.0,7.0,85,0.00,,,0.00,464,LWC V2.10 B1813,2013-01-12 20:21:00,
2013-01-12 15:26:00,73.3,68.2,30.14,SW,226,4.0,7.0,84,0.00,,,0.00,496,LWC V2.10 B1813,2013-01-12 20:26:00,
2013-01-12 15:31:00,73.8,68.7,30.14,SW,214,5.0,6.0,84,0.00,,,0.00,425,LWC V2.10 B1813,2013-01-12 20:31:00,
2013-01-12 15:36:00,74.0,68.5,30.14,SW,219,5.0,7.0,83,0.00,,,0.00,401,LWC V2.10 B1813,2013-01-12 20:36:00,
2013-01-12 15:41:00,73.6,68.1,30.14,WSW,257,5.0,8.0,83,0.00,,,0.00,313,LWC V2.10 B1813,2013-01-12 20:41:00,
2013-01-12 15:46:00,73.1,68.3,30.15,WSW,237,5.0,6.0,85,0.00,,,0.00,367,LWC V2.10 B1813,2013-01-12 20:46:00,
2013-01-12 15:51:00,73.3,68.5,30.15,SW,231,2.0,5.0,85,0.00,,,0.00,362,LWC V2.10 B1813,2013-01-12 20:51:00,
2013-01-12 15:56:00,73.5,68.4,30.15,WSW,258,4.0,7.0,84,0.00,,,0.00,246,LWC V2.10 B1813,2013-01-12 20:56:00,
2013-01-12 16:01:00,73.3,68.2,30.15,SW,234,5.0,7.0,84,0.00,,,0.00,362,LWC V2.10 B1813,2013-01-12 21:01:00,
2013-01-12 16:06:00,73.2,68.4,30.15,SW,232,7.0,9.0,85,0.00,,,0.00,255,LWC V2.10 B1813,2013-01-12 21:06:00,
2013-01-12 16:11:00,72.8,68.0,30.15,SW,229,7.0,8.0,85,0.00,,,0.00,330,LWC V2.10 B1813,2013-01-12 21:11:00,
2013-01-12 16:16:00,72.6,68.2,30.15,SW,226,7.0,7.0,86,0.00,,,0.00,272,LWC V2.10 B1813,2013-01-12 21:16:00,
2013-01-12 16:21:00,72.4,68.0,30.15,SW,228,4.0,7.0,86,0.00,,,0.00,258,LWC V2.10 B1813,2013-01-12 21:21:00,
2013-01-12 16:26:00,72.7,68.3,30.15,SW,232,2.0,5.0,86,0.00,,,0.00,241,LWC V2.10 B1813,2013-01-12 21:26:00,
2013-01-12 16:31:00,72.9,68.5,30.15,WSW,237,2.0,3.0,86,0.00,,,0.00,200,LWC V2.10 B1813,2013-01-12 21:31:00,
2013-01-12 16:36:00,72.7,68.3,30.15,WNW,291,2.0,5.0,86,0.00,,,0.00,195,LWC V2.10 B1813,2013-01-12 21:36:00,
2013-01-12 16:41:00,72.6,68.2,30.15,West,276,3.0,4.0,86,0.00,,,0.00,183,LWC V2.10 B1813,2013-01-12 21:41:00,
2013-01-12 16:46:00,72.4,68.0,30.15,WNW,302,4.0,6.0,86,0.00,,,0.00,169,LWC V2.10 B1813,2013-01-12 21:46:00,
2013-01-12 16:51:00,72.3,67.9,30.15,WNW,291,3.0,5.0,86,0.00,,,0.00,153,LWC V2.10 B1813,2013-01-12 21:51:00,
2013-01-12 16:56:00,72.1,67.7,30.15,NW,312,2.0,5.0,86,0.00,,,0.00,109,LWC V2.10 B1813,2013-01-12 21:56:00,
2013-01-12 17:01:00,72.0,67.9,30.15,NW,312,0.0,1.0,87,0.00,,,0.00,69,LWC V2.10 B1813,2013-01-12 22:01:00,
2013-01-12 17:06:00,72.3,68.2,30.15,NW,312,0.0,1.0,87,0.00,,,0.00,79,LWC V2.10 B1813,2013-01-12 22:06:00,
2013-01-12 17:11:00,72.4,68.0,30.15,NW,312,2.0,4.0,86,0.00,,,0.00,72,LWC V2.10 B1813,2013-01-12 22:11:00,
2013-01-12 17:16:00,72.2,67.8,30.15,NW,312,2.0,3.0,86,0.00,,,0.00,62,LWC V2.10 B1813,2013-01-12 22:16:00,
2013-01-12 17:21:00,72.1,67.7,30.15,NW,312,3.0,4.0,86,0.00,,,0.00,53,LWC V2.10 B1813,2013-01-12 22:21:00,
2013-01-12 17:26:00,71.9,67.8,30.15,NW,312,3.0,3.0,87,0.00,,,0.00,35,LWC V2.10 B1813,2013-01-12 22:26:00,
2013-01-12 17:31:00,71.8,67.7,30.15,NW,312,1.0,2.0,87,0.00,,,0.00,25,LWC V2.10 B1813,2013-01-12 22:31:00,
2013-01-12 17:36:00,71.7,67.6,30.15,NW,312,1.0,2.0,87,0.00,,,0.00,23,LWC V2.10 B1813,2013-01-12 22:36:00,
2013-01-12 17:41:00,71.7,67.6,30.15,NW,312,0.0,2.0,87,0.00,,,0.00,19,LWC V2.10 B1813,2013-01-12 22:41:00,
2013-01-12 17:46:00,71.8,67.7,30.16,NW,312,1.0,1.0,87,0.00,,,0.00,7,LWC V2.10 B1813,2013-01-12 22:46:00,
2013-01-12 17:51:00,71.7,67.6,30.15,NW,312,0.0,2.0,87,0.00,,,0.00,5,LWC V2.10 B1813,2013-01-12 22:51:00,
2013-01-12 17:56:00,71.7,67.6,30.15,NW,312,1.0,3.0,87,0.00,,,0.00,0,LWC V2.10 B1813,2013-01-12 22:56:00,
2013-01-12 18:01:00,71.8,67.7,30.15,NW,312,1.0,3.0,87,0.00,,,0.00,0,LWC V2.10 B1813,2013-01-12 23:01:00,
2013-01-12 18:06:00,71.7,67.6,30.15,NW,312,1.0,2.0,87,0.00,,,0.00,0,LWC V2.10 B1813,2013-01-12 23:06:00,
2013-01-12 18:11:00,71.7,67.6,30.16,NW,312,0.0,1.0,87,0.00,,,0.00,0,LWC V2.10 B1813,2013-01-12 23:11:00,
2013-01-12 18:16:00,71.7,67.6,30.16,NW,312,1.0,1.0,87,0.00,,,0.00,0,LWC V2.10 B1813,2013-01-12 23:16:00,
2013-01-12 18:21:00,71.7,67.6,30.16,NW,312,0.0,1.0,87,0.00,,,0.00,0,LWC V2.10 B1813,2013-01-12 23:21:00,
2013-01-12 18:26:00,71.7,67.6,30.15,NW,312,0.0,0.0,87,0.00,,,0.00,0,LWC V2.10 B1813,2013-01-12 23:26:00,
2013-01-12 18:31:00,71.7,67.6,30.16,NW,312,0.0,0.0,87,0.00,,,0.00,0,LWC V2.10 B1813,2013-01-12 23:31:00,
2013-01-12 18:36:00,71.8,67.7,30.15,NW,312,0.0,0.0,87,0.00,,,0.00,0,LWC V2.10 B1813,2013-01-12 23:36:00,
2013-01-12 18:41:00,71.8,67.7,30.15,NW,312,0.0,0.0,87,0.00,,,0.00,0,LWC V2.10 B1813,2013-01-12 23:41:00,
2013-01-12 18:46:00,71.9,67.8,30.16,NW,312,0.0,0.0,87,0.00,,,0.00,0,LWC V2.10 B1813,2013-01-12 23:46:00,
2013-01-12 18:51:00,71.9,67.8,30.15,NW,312,0.0,0.0,87,0.00,,,0.00,0,LWC V2.10 B1813,2013-01-12 23:51:00,
2013-01-12 18:56:00,71.8,67.4,30.15,NW,312,0.0,0.0,86,0.00,,,0.00,0,LWC V2.10 B1813,2013-01-12 23:56:00,
2013-01-12 19:01:00,71.8,67.7,30.15,NW,312,0.0,0.0,87,0.00,,,0.00,0,LWC V2.10 B1813,2013-01-13 00:01:00,
2013-01-12 19:06:00,71.8,67.7,30.15,NW,314,2.0,5.0,87,0.00,,,0.00,0,LWC V2.10 B1813,2013-01-13 00:06:00,
2013-01-12 19:11:00,71.6,67.5,30.15,NW,314,1.0,2.0,87,0.00,,,0.00,0,LWC V2.10 B1813,2013-01-13 00:11:00,
2013-01-12 19:16:00,71.6,67.5,30.15,NW,314,0.0,1.0,87,0.00,,,0.00,0,LWC V2.10 B1813,2013-01-13 00:16:00,
2013-01-12 19:21:00,71.5,67.4,30.15,NNW,343,3.0,4.0,87,0.00,,,0.00,0,LWC V2.10 B1813,2013-01-13 00:21:00,
2013-01-12 19:26:00,71.3,67.2,30.15,NNW,342,1.0,3.0,87,0.00,,,0.00,0,LWC V2.10 B1813,2013-01-13 00:26:00,
2013-01-12 19:31:00,71.2,67.1,30.15,NNW,343,4.0,4.0,87,0.00,,,0.00,0,LWC V2.10 B1813,2013-01-13 00:31:00,
2013-01-12 19:36:00,71.2,67.5,30.15,NNW,344,0.0,1.0,88,0.00,,,0.00,0,LWC V2.10 B1813,2013-01-13 00:36:00,
2013-01-12 19:41:00,71.1,67.4,30.15,NNW,344,0.0,2.0,88,0.00,,,0.00,0,LWC V2.10 B1813,2013-01-13 00:41:00,
2013-01-12 19:46:00,71.1,67.4,30.15,NNW,344,1.0,4.0,88,0.00,,,0.00,0,LWC V2.10 B1813,2013-01-13 00:46:00,
2013-01-12 19:51:00,71.0,67.3,30.15,NNW,347,0.0,4.0,88,0.00,,,0.00,0,LWC V2.10 B1813,2013-01-13 00:51:00,
2013-01-12 19:56:00,70.9,67.2,30.15,NNW,347,2.0,4.0,88,0.00,,,0.00,0,LWC V2.10 B1813,2013-01-13 00:56:00,
2013-01-12 20:01:00,70.8,67.1,30.15,North,359,3.0,4.0,88,0.00,,,0.00,0,LWC V2.10 B1813,2013-01-13 01:01:00,
2013-01-12 20:06:00,70.9,67.2,30.14,North,359,2.0,4.0,88,0.00,,,0.00,0,LWC V2.10 B1813,2013-01-13 01:06:00,
2013-01-12 20:11:00,70.9,67.2,30.14,North,359,1.0,3.0,88,0.00,,,0.00,0,LWC V2.10 B1813,2013-01-13 01:11:00,
2013-01-12 20:16:00,71.0,67.3,30.14,North,359,1.0,3.0,88,0.00,,,0.00,0,LWC V2.10 B1813,2013-01-13 01:16:00,
2013-01-12 20:21:00,70.9,67.2,30.14,North,359,2.0,3.0,88,0.00,,,0.00,0,LWC V2.10 B1813,2013-01-13 01:21:00,
2013-01-12 20:26:00,70.9,67.2,30.14,NNE,19,3.0,4.0,88,0.00,,,0.00,0,LWC V2.10 B1813,2013-01-13 01:26:00,
2013-01-12 20:31:00,71.0,67.3,30.14,NNE,20,2.0,3.0,88,0.00,,,0.00,0,LWC V2.10 B1813,2013-01-13 01:31:00,
2013-01-12 20:36:00,71.0,67.3,30.14,NNE,21,2.0,4.0,88,0.00,,,0.00,0,LWC V2.10 B1813,2013-01-13 01:36:00,
2013-01-12 20:41:00,70.8,67.1,30.14,NNE,21,1.0,3.0,88,0.00,,,0.00,0,LWC V2.10 B1813,2013-01-13 01:41:00,
2013-01-12 20:46:00,70.7,67.0,30.14,NNE,21,2.0,3.0,88,0.00,,,0.00,0,LWC V2.10 B1813,2013-01-13 01:46:00,
2013-01-12 20:51:00,70.7,67.0,30.14,NNE,21,3.0,3.0,88,0.00,,,0.00,0,LWC V2.10 B1813,2013-01-13 01:51:00,
2013-01-12 20:56:00,70.6,66.9,30.13,NNE,21,2.0,3.0,88,0.00,,,0.00,0,LWC V2.10 B1813,2013-01-13 01:56:00,
2013-01-12 21:01:00,70.6,66.9,30.13,NE,36,2.0,3.0,88,0.00,,,0.00,0,LWC V2.10 B1813,2013-01-13 02:01:00,
2013-01-12 21:06:00,70.4,67.0,30.14,NE,36,3.0,4.0,89,0.00,,,0.00,0,LWC V2.10 B1813,2013-01-13 02:06:00,
2013-01-12 21:11:00,70.3,66.9,30.13,NE,36,3.0,3.0,89,0.00,,,0.00,0,LWC V2.10 B1813,2013-01-13 02:11:00,
2013-01-12 21:16:00,70.3,66.9,30.13,NE,36,3.0,4.0,89,0.00,,,0.00,0,LWC V2.10 B1813,2013-01-13 02:16:00,
2013-01-12 21:21:00,70.4,67.0,30.13,NE,37,2.0,3.0,89,0.00,,,0.00,0,LWC V2.10 B1813,2013-01-13 02:21:00,
2013-01-12 21:26:00,70.7,67.3,30.13,NE,40,1.0,3.0,89,0.00,,,0.00,0,LWC V2.10 B1813,2013-01-13 02:26:00,
2013-01-12 21:31:00,70.9,67.2,30.13,NE,40,1.0,4.0,88,0.00,,,0.00,0,LWC V2.10 B1813,2013-01-13 02:31:00,
2013-01-12 21:36:00,70.8,67.1,30.13,NE,40,2.0,3.0,88,0.00,,,0.00,0,LWC V2.10 B1813,2013-01-13 02:36:00,
2013-01-12 21:41:00,70.7,67.0,30.13,NE,40,2.0,3.0,88,0.00,,,0.00,0,LWC V2.10 B1813,2013-01-13 02:41:00,
2013-01-12 21:47:00,71.2,67.5,30.13,NE,46,3.0,4.0,88,0.00,,,0.00,0,LWC V2.10 B1813,2013-01-13 02:47:00,
2013-01-12 21:52:00,71.0,67.3,30.13,NE,47,1.0,2.0,88,0.00,,,0.00,0,LWC V2.10 B1813,2013-01-13 02:52:00,
2013-01-12 21:57:00,70.7,67.0,30.13,NE,47,3.0,4.0,88,0.00,,,0.00,0,LWC V2.10 B1813,2013-01-13 02:57:00,
2013-01-12 22:02:00,70.6,66.9,30.13,NE,47,2.0,3.0,88,0.00,,,0.00,0,LWC V2.10 B1813,2013-01-13 03:02:00,
2013-01-12 22:07:00,70.4,66.7,30.13,NE,47,3.0,4.0,88,0.00,,,0.00,0,LWC V2.10 B1813,2013-01-13 03:07:00,
2013-01-12 22:12:00,70.1,66.7,30.13,NE,51,4.0,4.0,89,0.00,,,0.00,0,LWC V2.10 B1813,2013-01-13 03:12:00,
2013-01-12 22:17:00,70.1,66.7,30.13,NE,53,2.0,4.0,89,0.00,,,0.00,0,LWC V2.10 B1813,2013-01-13 03:17:00,
2013-01-12 22:22:00,70.0,66.6,30.14,NE,53,0.0,3.0,89,0.00,,,0.00,0,LWC V2.10 B1813,2013-01-13 03:22:00,
2013-01-12 22:27:00,70.2,67.1,30.14,NE,53,0.0,1.0,90,0.00,,,0.00,0,LWC V2.10 B1813,2013-01-13 03:27:00,
2013-01-12 22:32:00,70.2,67.1,30.14,NE,53,0.0,2.0,90,0.00,,,0.00,0,LWC V2.10 B1813,2013-01-13 03:32:00,
2013-01-12 22:37:00,70.4,67.3,30.14,NE,53,0.0,2.0,90,0.00,,,0.00,0,LWC V2.10 B1813,2013-01-13 03:37:00,
2013-01-12 22:42:00,70.5,67.4,30.14,NE,52,0.0,0.0,90,0.00,,,0.00,0,LWC V2.10 B1813,2013-01-13 03:42:00,
2013-01-12 22:47:00,70.4,67.0,30.14,NE,52,2.0,4.0,89,0.00,,,0.00,0,LWC V2.10 B1813,2013-01-13 03:47:00,
2013-01-12 22:52:00,70.3,66.9,30.14,NE,53,4.0,5.0,89,0.00,,,0.00,0,LWC V2.10 B1813,2013-01-13 03:52:00,
2013-01-12 22:57:00,70.2,66.8,30.13,NE,53,0.0,4.0,89,0.00,,,0.00,0,LWC V2.10 B1813,2013-01-13 03:57:00,
2013-01-12 23:02:00,70.1,66.7,30.14,NE,54,4.0,5.0,89,0.00,,,0.00,0,LWC V2.10 B1813,2013-01-13 04:02:00,
2013-01-12 23:07:00,70.4,67.3,30.14,East,82,5.0,7.0,90,0.00,,,0.00,0,LWC V2.10 B1813,2013-01-13 04:07:00,
2013-01-12 23:12:00,70.4,67.0,30.13,East,82,2.0,5.0,89,0.00,,,0.00,0,LWC V2.10 B1813,2013-01-13 04:12:00,
2013-01-12 23:17:00,70.3,66.9,30.13,East,86,3.0,7.0,89,0.00,,,0.00,0,LWC V2.10 B1813,2013-01-13 04:17:00,
2013-01-12 23:22:00,70.3,66.9,30.13,East,86,3.0,6.0,89,0.00,,,0.00,0,LWC V2.10 B1813,2013-01-13 04:22:00,
2013-01-12 23:27:00,70.4,67.0,30.14,East,89,2.0,8.0,89,0.00,,,0.00,0,LWC V2.10 B1813,2013-01-13 04:27:00,
2013-01-12 23:32:00,70.3,66.9,30.13,East,79,3.0,6.0,89,0.00,,,0.00,0,LWC V2.10 B1813,2013-01-13 04:32:00,
2013-01-12 23:37:00,70.1,67.0,30.13,East,83,5.0,8.0,90,0.00,,,0.00,0,LWC V2.10 B1813,2013-01-13 04:37:00,
2013-01-12 23:42:00,70.0,66.9,30.13,East,87,6.0,6.0,90,0.00,,,0.00,0,LWC V2.10 B1813,2013-01-13 04:42:00,
2013-01-12 23:47:00,69.9,66.8,30.13,East,87,5.0,6.0,90,0.00,,,0.00,0,LWC V2.10 B1813,2013-01-13 04:47:00,
2013-01-12 23:52:00,69.7,66.6,30.13,East,89,6.0,8.0,90,0.00,,,0.00,0,LWC V2.10 B1813,2013-01-13 04:52:00,
2013-01-12 23:57:00,69.7,66.6,30.13,East,100,5.0,8.0,90,0.00,,,0.00,0,LWC V2.10 B1813,2013-01-13 04:57:00,